sensor_id;sensor_type;location;lat;lon;timestamp;pressure;altitude;pressure_sealevel;temperature;humidity
40075;BME280;26529;51.530;11.754;2023-01-29T00:01:24;101312.78;;;18.99;41.19
40075;BME280;26529;51.530;11.754;2023-01-29T00:03:50;101304.00;;;18.97;41.38
40075;BME280;26529;51.530;11.754;2023-01-29T00:06:16;101296.97;;;18.96;41.52
40075;BME280;26529;51.530;11.754;2023-01-29T00:08:42;101300.56;;;18.95;41.48
40075;BME280;26529;51.530;11.754;2023-01-29T00:11:08;101302.22;;;18.97;41.49
40075;BME280;26529;51.530;11.754;2023-01-29T00:13:34;101300.56;;;18.95;41.50
40075;BME280;26529;51.530;11.754;2023-01-29T00:16:00;101299.84;;;18.91;41.53
40075;BME280;26529;51.530;11.754;2023-01-29T00:18:26;101288.34;;;18.91;41.64
40075;BME280;26529;51.530;11.754;2023-01-29T00:20:52;101291.94;;;18.90;41.51
40075;BME280;26529;51.530;11.754;2023-01-29T00:23:17;101291.09;;;18.89;41.47
40075;BME280;26529;51.530;11.754;2023-01-29T00:25:44;101284.06;;;18.88;41.60
40075;BME280;26529;51.530;11.754;2023-01-29T00:28:10;101283.19;;;18.88;41.57
40075;BME280;26529;51.530;11.754;2023-01-29T00:30:36;101277.88;;;18.88;41.65
40075;BME280;26529;51.530;11.754;2023-01-29T00:33:02;101282.31;;;18.87;41.80
40075;BME280;26529;51.530;11.754;2023-01-29T00:35:30;101273.56;;;18.85;41.67
40075;BME280;26529;51.530;11.754;2023-01-29T00:37:55;101286.06;;;18.83;41.73
40075;BME280;26529;51.530;11.754;2023-01-29T00:40:22;101276.22;;;18.85;41.73
40075;BME280;26529;51.530;11.754;2023-01-29T00:42:48;101272.78;;;18.83;41.64
40075;BME280;26529;51.530;11.754;2023-01-29T00:45:32;101284.34;;;18.82;41.77
40075;BME280;26529;51.530;11.754;2023-01-29T00:47:59;101279.88;;;18.82;41.75
40075;BME280;26529;51.530;11.754;2023-01-29T00:50:24;101285.28;;;18.81;41.71
40075;BME280;26529;51.530;11.754;2023-01-29T00:52:50;101279.97;;;18.81;41.73
40075;BME280;26529;51.530;11.754;2023-01-29T00:55:17;101280.88;;;18.80;41.82
40075;BME280;26529;51.530;11.754;2023-01-29T00:57:43;101270.25;;;18.80;41.71
40075;BME280;26529;51.530;11.754;2023-01-29T01:00:13;101268.53;;;18.79;41.80
40075;BME280;26529;51.530;11.754;2023-01-29T01:02:38;101265.09;;;18.77;41.84
40075;BME280;26529;51.530;11.754;2023-01-29T01:05:23;101259.78;;;18.77;41.87
40075;BME280;26529;51.530;11.754;2023-01-29T01:07:53;101263.38;;;18.76;41.93
40075;BME280;26529;51.530;11.754;2023-01-29T01:10:22;101264.31;;;18.75;41.89
40075;BME280;26529;51.530;11.754;2023-01-29T01:13:03;101261.66;;;18.75;41.87
40075;BME280;26529;51.530;11.754;2023-01-29T01:15:33;101254.59;;;18.74;41.85
40075;BME280;26529;51.530;11.754;2023-01-29T01:18:00;101254.75;;;18.70;41.91
40075;BME280;26529;51.530;11.754;2023-01-29T01:20:28;101251.16;;;18.71;41.96
40075;BME280;26529;51.530;11.754;2023-01-29T01:22:54;101257.41;;;18.70;41.78
40075;BME280;26529;51.530;11.754;2023-01-29T01:25:21;101260.94;;;18.71;42.06
40075;BME280;26529;51.530;11.754;2023-01-29T01:27:53;101257.41;;;18.70;42.00
40075;BME280;26529;51.530;11.754;2023-01-29T01:30:20;101248.66;;;18.68;41.92
40075;BME280;26529;51.530;11.754;2023-01-29T01:32:45;101246.94;;;18.67;41.95
40075;BME280;26529;51.530;11.754;2023-01-29T01:35:11;101241.69;;;18.66;41.98
40075;BME280;26529;51.530;11.754;2023-01-29T01:37:39;101239.03;;;18.66;42.06
40075;BME280;26529;51.530;11.754;2023-01-29T01:40:07;101235.50;;;18.65;42.06
40075;BME280;26529;51.530;11.754;2023-01-29T01:42:40;101228.47;;;18.64;42.08
40075;BME280;26529;51.530;11.754;2023-01-29T01:45:07;101226.75;;;18.63;41.89
40075;BME280;26529;51.530;11.754;2023-01-29T01:47:46;101226.75;;;18.63;42.11
40075;BME280;26529;51.530;11.754;2023-01-29T01:50:28;101227.69;;;18.62;42.11
40075;BME280;26529;51.530;11.754;2023-01-29T01:53:09;101219.72;;;18.62;41.95
40075;BME280;26529;51.530;11.754;2023-01-29T01:55:43;101225.03;;;18.62;42.02
40075;BME280;26529;51.530;11.754;2023-01-29T01:58:17;101225.97;;;18.61;42.22
40075;BME280;26529;51.530;11.754;2023-01-29T02:00:44;101232.16;;;18.60;42.19
40075;BME280;26529;51.530;11.754;2023-01-29T02:03:10;101234.03;;;18.58;42.11
40075;BME280;26529;51.530;11.754;2023-01-29T02:05:56;101244.69;;;18.58;42.14
40075;BME280;26529;51.530;11.754;2023-01-29T02:08:49;101246.56;;;18.56;42.24
40075;BME280;26529;51.530;11.754;2023-01-29T02:11:36;101253.59;;;18.57;42.27
40075;BME280;26529;51.530;11.754;2023-01-29T02:14:02;101250.97;;;18.55;42.11
40075;BME280;26529;51.530;11.754;2023-01-29T02:16:28;101256.34;;;18.54;42.15
40075;BME280;26529;51.530;11.754;2023-01-29T02:18:54;101244.81;;;18.55;42.33
40075;BME280;26529;51.530;11.754;2023-01-29T02:24:33;101241.34;;;18.53;42.32
40075;BME280;26529;51.530;11.754;2023-01-29T02:27:30;101244.00;;;18.53;42.16
40075;BME280;26529;51.530;11.754;2023-01-29T02:30:16;101243.22;;;18.51;42.27
40075;BME280;26529;51.530;11.754;2023-01-29T02:32:59;101239.63;;;18.52;42.27
40075;BME280;26529;51.530;11.754;2023-01-29T02:35:45;101219.41;;;18.49;42.34
40075;BME280;26529;51.530;11.754;2023-01-29T02:40:56;101229.16;;;18.49;42.20
40075;BME280;26529;51.530;11.754;2023-01-29T02:43:47;101230.94;;;18.48;42.38
40075;BME280;26529;51.530;11.754;2023-01-29T02:46:40;101243.38;;;18.48;42.28
40075;BME280;26529;51.530;11.754;2023-01-29T02:49:32;101252.19;;;18.48;42.47
40075;BME280;26529;51.530;11.754;2023-01-29T02:52:12;101248.75;;;18.46;42.46
40075;BME280;26529;51.530;11.754;2023-01-29T02:54:53;101241.72;;;18.45;42.43
40075;BME280;26529;51.530;11.754;2023-01-29T02:57:24;101245.22;;;18.46;42.54
40075;BME280;26529;51.530;11.754;2023-01-29T03:00:15;101234.59;;;18.46;42.54
40075;BME280;26529;51.530;11.754;2023-01-29T03:02:57;101225.84;;;18.43;42.47
40075;BME280;26529;51.530;11.754;2023-01-29T03:05:30;101231.16;;;18.43;42.45
40075;BME280;26529;51.530;11.754;2023-01-29T03:08:03;101232.09;;;18.42;42.59
40075;BME280;26529;51.530;11.754;2023-01-29T03:10:39;101228.63;;;18.40;42.53
40075;BME280;26529;51.530;11.754;2023-01-29T03:13:19;101225.13;;;18.40;42.46
40075;BME280;26529;51.530;11.754;2023-01-29T03:15:54;101225.13;;;18.40;42.34
40075;BME280;26529;51.530;11.754;2023-01-29T03:18:43;101225.19;;;18.38;42.60
40075;BME280;26529;51.530;11.754;2023-01-29T03:21:24;101228.78;;;18.37;42.58
40075;BME280;26529;51.530;11.754;2023-01-29T03:24:14;101225.25;;;18.37;42.46
40075;BME280;26529;51.530;11.754;2023-01-29T03:27:01;101212.91;;;18.36;42.52
40075;BME280;26529;51.530;11.754;2023-01-29T03:29:49;101209.31;;;18.37;42.50
40075;BME280;26529;51.530;11.754;2023-01-29T03:32:47;101212.06;;;18.35;42.62
40075;BME280;26529;51.530;11.754;2023-01-29T03:35:17;101213.00;;;18.34;42.65
40075;BME280;26529;51.530;11.754;2023-01-29T03:37:58;101217.38;;;18.35;42.55
40075;BME280;26529;51.530;11.754;2023-01-29T03:40:27;101209.47;;;18.34;42.37
40075;BME280;26529;51.530;11.754;2023-01-29T03:43:08;101205.03;;;18.34;42.55
40075;BME280;26529;51.530;11.754;2023-01-29T03:45:57;101204.16;;;18.34;42.45
40075;BME280;26529;51.530;11.754;2023-01-29T03:48:36;101207.75;;;18.33;42.58
40075;BME280;26529;51.530;11.754;2023-01-29T03:51:15;101213.13;;;18.31;42.56
40075;BME280;26529;51.530;11.754;2023-01-29T03:54:03;101203.28;;;18.33;42.58
40075;BME280;26529;51.530;11.754;2023-01-29T03:57:01;101199.91;;;18.29;42.60
40075;BME280;26529;51.530;11.754;2023-01-29T04:02:29;101215.00;;;18.29;42.67
40075;BME280;26529;51.530;11.754;2023-01-29T04:05:04;101212.34;;;18.29;42.85
40075;BME280;26529;51.530;11.754;2023-01-29T04:07:43;101213.19;;;18.29;42.58
40075;BME280;26529;51.530;11.754;2023-01-29T04:10:17;101212.34;;;18.29;42.60
40075;BME280;26529;51.530;11.754;2023-01-29T04:12:51;101206.22;;;18.27;42.65
40075;BME280;26529;51.530;11.754;2023-01-29T04:15:21;101201.84;;;18.26;42.55
40075;BME280;26529;51.530;11.754;2023-01-29T04:17:51;101207.16;;;18.26;42.66
40075;BME280;26529;51.530;11.754;2023-01-29T04:20:24;101200.13;;;18.25;42.79
40075;BME280;26529;51.530;11.754;2023-01-29T04:22:51;101196.53;;;18.26;42.67
40075;BME280;26529;51.530;11.754;2023-01-29T04:25:21;101190.44;;;18.24;42.90
40075;BME280;26529;51.530;11.754;2023-01-29T04:28:09;101193.97;;;18.24;42.74
40075;BME280;26529;51.530;11.754;2023-01-29T04:33:33;101187.78;;;18.24;42.82
40075;BME280;26529;51.530;11.754;2023-01-29T04:36:37;101172.03;;;18.21;42.92
40075;BME280;26529;51.530;11.754;2023-01-29T04:39:23;101173.75;;;18.22;42.71
40075;BME280;26529;51.530;11.754;2023-01-29T04:42:03;101169.38;;;18.21;42.95
40075;BME280;26529;51.530;11.754;2023-01-29T04:44:42;101161.41;;;18.21;42.85
40075;BME280;26529;51.530;11.754;2023-01-29T04:53:03;101162.41;;;18.18;42.87
40075;BME280;26529;51.530;11.754;2023-01-29T04:55:33;101158.94;;;18.16;42.94
40075;BME280;26529;51.530;11.754;2023-01-29T04:58:21;101162.47;;;18.16;42.88
40075;BME280;26529;51.530;11.754;2023-01-29T05:01:41;101164.34;;;18.14;42.90
40075;BME280;26529;51.530;11.754;2023-01-29T05:04:11;101156.22;;;18.17;42.88
40075;BME280;26529;51.530;11.754;2023-01-29T05:06:39;101161.53;;;18.17;42.91
40075;BME280;26529;51.530;11.754;2023-01-29T05:09:06;101162.41;;;18.18;42.86
40075;BME280;26529;51.530;11.754;2023-01-29T05:11:34;101151.06;;;18.14;42.93
40075;BME280;26529;51.530;11.754;2023-01-29T05:14:02;101151.06;;;18.14;42.93
40075;BME280;26529;51.530;11.754;2023-01-29T05:16:36;101149.31;;;18.13;42.93
40075;BME280;26529;51.530;11.754;2023-01-29T05:19:08;101144.88;;;18.14;43.09
40075;BME280;26529;51.530;11.754;2023-01-29T05:21:34;101145.88;;;18.11;43.03
40075;BME280;26529;51.530;11.754;2023-01-29T05:26:35;101150.25;;;18.12;42.76
40075;BME280;26529;51.530;11.754;2023-01-29T05:29:20;101145.88;;;18.11;43.11
40075;BME280;26529;51.530;11.754;2023-01-29T05:31:45;101149.47;;;18.10;42.95
40075;BME280;26529;51.530;11.754;2023-01-29T05:34:11;101138.84;;;18.10;42.97
40075;BME280;26529;51.530;11.754;2023-01-29T05:36:36;101135.31;;;18.10;42.89
40075;BME280;26529;51.530;11.754;2023-01-29T05:39:02;101145.09;;;18.09;43.06
40075;BME280;26529;51.530;11.754;2023-01-29T05:41:27;101142.44;;;18.09;42.91
40075;BME280;26529;51.530;11.754;2023-01-29T05:43:53;101139.78;;;18.09;42.81
40075;BME280;26529;51.530;11.754;2023-01-29T05:46:18;101135.41;;;18.08;42.89
40075;BME280;26529;51.530;11.754;2023-01-29T05:48:44;101129.22;;;18.08;42.96
40075;BME280;26529;51.530;11.754;2023-01-29T05:51:09;101136.41;;;18.06;43.20
40075;BME280;26529;51.530;11.754;2023-01-29T05:53:35;101130.16;;;18.07;43.18
40075;BME280;26529;51.530;11.754;2023-01-29T05:56:02;101130.94;;;18.09;43.12
40075;BME280;26529;51.530;11.754;2023-01-29T05:58:29;101121.34;;;18.06;43.14
40075;BME280;26529;51.530;11.754;2023-01-29T06:00:55;101127.56;;;18.05;43.17
40075;BME280;26529;51.530;11.754;2023-01-29T06:03:21;101133.25;;;18.16;42.81
40075;BME280;26529;51.530;11.754;2023-01-29T06:05:46;101126.53;;;18.28;42.62
40075;BME280;26529;51.530;11.754;2023-01-29T06:08:12;101133.03;;;18.40;42.47
40075;BME280;26529;51.530;11.754;2023-01-29T06:10:37;101130.03;;;18.48;42.47
40075;BME280;26529;51.530;11.754;2023-01-29T06:13:03;101132.41;;;18.54;42.37
40075;BME280;26529;51.530;11.754;2023-01-29T06:15:28;101125.09;;;18.60;42.50
40075;BME280;26529;51.530;11.754;2023-01-29T06:17:55;101122.38;;;18.61;42.46
40075;BME280;26529;51.530;11.754;2023-01-29T06:20:21;101130.16;;;18.64;42.36
40075;BME280;26529;51.530;11.754;2023-01-29T06:22:46;101131.09;;;18.63;42.46
40075;BME280;26529;51.530;11.754;2023-01-29T06:25:12;101130.25;;;18.63;42.15
40075;BME280;26529;51.530;11.754;2023-01-29T06:27:37;101136.44;;;18.63;42.34
40075;BME280;26529;51.530;11.754;2023-01-29T06:30:04;101139.16;;;18.62;42.22
40075;BME280;26529;51.530;11.754;2023-01-29T06:32:29;101147.13;;;18.62;42.41
40075;BME280;26529;51.530;11.754;2023-01-29T06:34:55;101163.06;;;18.62;42.40
40075;BME280;26529;51.530;11.754;2023-01-29T06:37:20;101163.13;;;18.60;42.45
40075;BME280;26529;51.530;11.754;2023-01-29T06:39:46;101165.88;;;18.58;42.38
40075;BME280;26529;51.530;11.754;2023-01-29T06:42:11;101167.53;;;18.61;42.40
40075;BME280;26529;51.530;11.754;2023-01-29T06:44:36;101176.09;;;18.66;42.41
40075;BME280;26529;51.530;11.754;2023-01-29T06:47:02;101174.81;;;18.75;42.55
40075;BME280;26529;51.530;11.754;2023-01-29T06:49:27;101186.09;;;18.80;42.38
40075;BME280;26529;51.530;11.754;2023-01-29T06:51:53;101193.25;;;18.97;42.17
40075;BME280;26529;51.530;11.754;2023-01-29T06:54:18;101209.19;;;19.17;41.81
40075;BME280;26529;51.530;11.754;2023-01-29T06:56:44;101212.59;;;19.38;41.05
40075;BME280;26529;51.530;11.754;2023-01-29T06:59:10;101212.44;;;19.41;41.16
40075;BME280;26529;51.530;11.754;2023-01-29T07:01:40;101220.03;;;19.49;41.04
40075;BME280;26529;51.530;11.754;2023-01-29T07:04:08;101219.19;;;19.48;40.99
40075;BME280;26529;51.530;11.754;2023-01-29T07:06:34;101217.94;;;19.56;40.74
40075;BME280;26529;51.530;11.754;2023-01-29T07:09:00;101219.59;;;19.58;40.92
40075;BME280;26529;51.530;11.754;2023-01-29T07:11:26;101223.03;;;19.60;41.01
40075;BME280;26529;51.530;11.754;2023-01-29T07:13:51;101223.81;;;19.62;40.80
40075;BME280;26529;51.530;11.754;2023-01-29T07:16:17;101217.53;;;19.63;40.89
40075;BME280;26529;51.530;11.754;2023-01-29T07:18:43;101233.38;;;19.66;41.09
40075;BME280;26529;51.530;11.754;2023-01-29T07:21:09;101242.34;;;19.64;41.21
40075;BME280;26529;51.530;11.754;2023-01-29T07:23:34;101244.00;;;19.66;41.00
40075;BME280;26529;51.530;11.754;2023-01-29T07:26:01;101246.34;;;19.73;41.06
40075;BME280;26529;51.530;11.754;2023-01-29T07:28:27;101255.19;;;19.73;41.26
40075;BME280;26529;51.530;11.754;2023-01-29T07:30:57;101261.06;;;19.80;41.40
40075;BME280;26529;51.530;11.754;2023-01-29T07:33:22;101259.25;;;19.80;41.50
40075;BME280;26529;51.530;11.754;2023-01-29T07:35:48;101256.44;;;19.84;41.70
40075;BME280;26529;51.530;11.754;2023-01-29T07:38:14;101251.84;;;19.87;41.74
40075;BME280;26529;51.530;11.754;2023-01-29T07:40:39;101247.03;;;19.94;41.86
40075;BME280;26529;51.530;11.754;2023-01-29T07:43:06;101250.22;;;20.02;41.87
40075;BME280;26529;51.530;11.754;2023-01-29T07:45:34;101233.91;;;20.09;41.98
40075;BME280;26529;51.530;11.754;2023-01-29T07:48:00;101225.59;;;20.15;41.90
40075;BME280;26529;51.530;11.754;2023-01-29T07:50:26;101222.72;;;20.19;42.24
40075;BME280;26529;51.530;11.754;2023-01-29T07:52:54;101219.00;;;20.22;42.23
40075;BME280;26529;51.530;11.754;2023-01-29T07:55:20;101230.44;;;20.24;42.36
40075;BME280;26529;51.530;11.754;2023-01-29T07:57:45;101218.53;;;20.31;42.31
40075;BME280;26529;51.530;11.754;2023-01-29T08:00:12;101206.16;;;20.30;42.27
40075;BME280;26529;51.530;11.754;2023-01-29T08:02:39;101199.13;;;20.29;42.72
40075;BME280;26529;51.530;11.754;2023-01-29T08:05:05;101202.47;;;20.33;42.44
40075;BME280;26529;51.530;11.754;2023-01-29T08:07:31;101199.56;;;20.38;42.54
40075;BME280;26529;51.530;11.754;2023-01-29T08:09:56;101182.38;;;20.43;41.76
40075;BME280;26529;51.530;11.754;2023-01-29T08:12:22;101170.25;;;20.38;41.52
40075;BME280;26529;51.530;11.754;2023-01-29T08:14:47;101165.94;;;20.35;42.03
40075;BME280;26529;51.530;11.754;2023-01-29T08:17:13;101168.88;;;20.30;42.18
40075;BME280;26529;51.530;11.754;2023-01-29T08:19:38;101161.91;;;20.28;42.37
40075;BME280;26529;51.530;11.754;2023-01-29T08:22:04;101150.56;;;20.24;42.16
40075;BME280;26529;51.530;11.754;2023-01-29T08:24:30;101168.41;;;20.22;42.19
40075;BME280;26529;51.530;11.754;2023-01-29T08:26:56;101163.06;;;20.22;42.09
40075;BME280;26529;51.530;11.754;2023-01-29T08:29:21;101166.69;;;20.21;42.11
40075;BME280;26529;51.530;11.754;2023-01-29T08:31:47;101182.59;;;20.23;42.12
40075;BME280;26529;51.530;11.754;2023-01-29T08:34:13;101173.72;;;20.22;41.98
40075;BME280;26529;51.530;11.754;2023-01-29T08:36:38;101171.06;;;20.22;41.79
40075;BME280;26529;51.530;11.754;2023-01-29T08:39:04;101169.34;;;20.21;41.90
40075;BME280;26529;51.530;11.754;2023-01-29T08:41:29;101165.75;;;20.22;42.08
40075;BME280;26529;51.530;11.754;2023-01-29T08:43:55;101166.69;;;20.21;41.92
40075;BME280;26529;51.530;11.754;2023-01-29T08:46:21;101176.41;;;20.22;41.88
40075;BME280;26529;51.530;11.754;2023-01-29T08:48:46;101175.56;;;20.22;41.99
40075;BME280;26529;51.530;11.754;2023-01-29T08:51:12;101179.06;;;20.22;41.79
40075;BME280;26529;51.530;11.754;2023-01-29T08:53:37;101187.03;;;20.22;41.98
40075;BME280;26529;51.530;11.754;2023-01-29T08:56:03;101200.22;;;20.25;41.98
40075;BME280;26529;51.530;11.754;2023-01-29T08:58:28;101197.38;;;20.28;42.01
40075;BME280;26529;51.530;11.754;2023-01-29T09:00:54;101192.91;;;20.29;41.96
40075;BME280;26529;51.530;11.754;2023-01-29T09:03:19;101191.91;;;20.31;41.88
40075;BME280;26529;51.530;11.754;2023-01-29T09:05:45;101183.97;;;20.30;42.02
40075;BME280;26529;51.530;11.754;2023-01-29T09:08:11;101189.31;;;20.30;41.85
40075;BME280;26529;51.530;11.754;2023-01-29T09:10:36;101176.94;;;20.29;41.85
40075;BME280;26529;51.530;11.754;2023-01-29T09:13:02;101176.06;;;20.28;42.04
40075;BME280;26529;51.530;11.754;2023-01-29T09:15:27;101177.97;;;20.26;41.81
40075;BME280;26529;51.530;11.754;2023-01-29T09:17:53;101186.91;;;20.25;41.52
40075;BME280;26529;51.530;11.754;2023-01-29T09:20:19;101193.16;;;20.24;41.76
40075;BME280;26529;51.530;11.754;2023-01-29T09:22:45;101198.41;;;20.26;41.76
40075;BME280;26529;51.530;11.754;2023-01-29T09:25:10;101189.50;;;20.27;41.62
40075;BME280;26529;51.530;11.754;2023-01-29T09:27:36;101187.66;;;20.27;41.58
40075;BME280;26529;51.530;11.754;2023-01-29T09:30:03;101189.50;;;20.27;41.58
40075;BME280;26529;51.530;11.754;2023-01-29T09:32:29;101172.63;;;20.26;41.45
40075;BME280;26529;51.530;11.754;2023-01-29T09:34:58;101177.97;;;20.26;41.58
40075;BME280;26529;51.530;11.754;2023-01-29T09:37:23;101172.63;;;20.26;41.94
40075;BME280;26529;51.530;11.754;2023-01-29T09:39:48;101156.66;;;20.26;41.70
40075;BME280;26529;51.530;11.754;2023-01-29T09:42:43;101159.31;;;20.26;41.93
40075;BME280;26529;51.530;11.754;2023-01-29T09:45:14;101162.84;;;20.27;41.69
40075;BME280;26529;51.530;11.754;2023-01-29T09:47:41;101159.94;;;20.31;41.61
40075;BME280;26529;51.530;11.754;2023-01-29T09:50:22;101161.66;;;20.32;42.05
40075;BME280;26529;51.530;11.754;2023-01-29T09:52:55;101157.88;;;20.37;41.57
40075;BME280;26529;51.530;11.754;2023-01-29T09:55:27;101163.22;;;20.37;41.66
40075;BME280;26529;51.530;11.754;2023-01-29T09:57:57;101161.38;;;20.37;41.68
40075;BME280;26529;51.530;11.754;2023-01-29T10:00:34;101154.28;;;20.38;41.68
40075;BME280;26529;51.530;11.754;2023-01-29T10:14:37;101126.69;;;20.39;41.36
40075;BME280;26529;51.530;11.754;2023-01-29T10:23:12;101125.25;;;20.49;40.66
40075;BME280;26529;51.530;11.754;2023-01-29T10:25:41;101115.34;;;20.51;41.12
40075;BME280;26529;51.530;11.754;2023-01-29T10:30:48;101116.31;;;20.50;40.83
40075;BME280;26529;51.530;11.754;2023-01-29T10:33:23;101114.59;;;20.49;40.83
40075;BME280;26529;51.530;11.754;2023-01-29T10:35:55;101105.03;;;20.45;41.15
40075;BME280;26529;51.530;11.754;2023-01-29T10:38:38;101097.88;;;20.45;41.07
40075;BME280;26529;51.530;11.754;2023-01-29T10:44:07;101077.28;;;20.49;40.93
40075;BME280;26529;51.530;11.754;2023-01-29T10:57:34;101073.06;;;20.61;41.07
40075;BME280;26529;51.530;11.754;2023-01-29T11:00:16;101074.09;;;20.58;40.93
40075;BME280;26529;51.530;11.754;2023-01-29T11:02:45;101068.84;;;20.57;41.34
40075;BME280;26529;51.530;11.754;2023-01-29T11:05:33;101061.13;;;20.52;41.69
40075;BME280;26529;51.530;11.754;2023-01-29T11:08:11;101063.03;;;20.50;41.76
40075;BME280;26529;51.530;11.754;2023-01-29T11:13:47;101041.13;;;20.45;41.03
40075;BME280;26529;51.530;11.754;2023-01-29T11:16:14;101047.38;;;20.44;41.48
40075;BME280;26529;51.530;11.754;2023-01-29T11:18:57;101040.25;;;20.44;41.11
40075;BME280;26529;51.530;11.754;2023-01-29T11:21:25;101033.28;;;20.42;41.15
40075;BME280;26529;51.530;11.754;2023-01-29T11:24:09;101026.44;;;20.38;41.23
40075;BME280;26529;51.530;11.754;2023-01-29T11:26:38;101025.63;;;20.36;41.33
40075;BME280;26529;51.530;11.754;2023-01-29T11:32:01;101017.84;;;20.32;41.61
40075;BME280;26529;51.530;11.754;2023-01-29T11:34:28;101008.13;;;20.31;41.16
40075;BME280;26529;51.530;11.754;2023-01-29T11:37:03;101012.50;;;20.32;41.43
40075;BME280;26529;51.530;11.754;2023-01-29T11:39:30;101022.97;;;20.36;41.18
40075;BME280;26529;51.530;11.754;2023-01-29T11:42:00;101015.94;;;20.34;41.14
40075;BME280;26529;51.530;11.754;2023-01-29T11:44:40;101012.16;;;20.39;41.14
40075;BME280;26529;51.530;11.754;2023-01-29T11:49:38;101010.59;;;20.34;41.51
40075;BME280;26529;51.530;11.754;2023-01-29T11:52:09;101005.28;;;20.34;41.33
40075;BME280;26529;51.530;11.754;2023-01-29T11:54:44;100996.19;;;20.39;41.14
40075;BME280;26529;51.530;11.754;2023-01-29T11:57:20;100989.91;;;20.40;40.85
40075;BME280;26529;51.530;11.754;2023-01-29T11:59:49;100983.72;;;20.39;41.04
40075;BME280;26529;51.530;11.754;2023-01-29T12:02:26;100998.84;;;20.39;40.94
40075;BME280;26529;51.530;11.754;2023-01-29T12:04:57;100976.59;;;20.40;40.88
40075;BME280;26529;51.530;11.754;2023-01-29T12:07:24;100963.34;;;20.38;41.01
40075;BME280;26529;51.530;11.754;2023-01-29T12:09:55;100953.72;;;20.36;40.82
40075;BME280;26529;51.530;11.754;2023-01-29T12:12:40;100953.72;;;20.36;40.78
40075;BME280;26529;51.530;11.754;2023-01-29T12:15:22;100950.31;;;20.33;40.65
40075;BME280;26529;51.530;11.754;2023-01-29T12:17:58;100941.34;;;20.34;40.80
40075;BME280;26529;51.530;11.754;2023-01-29T12:20:33;100938.13;;;20.29;40.99
40075;BME280;26529;51.530;11.754;2023-01-29T12:23:04;100931.84;;;20.30;40.86
40075;BME280;26529;51.530;11.754;2023-01-29T12:25:43;100916.63;;;20.32;40.81
40075;BME280;26529;51.530;11.754;2023-01-29T12:28:21;100911.50;;;20.29;40.95
40075;BME280;26529;51.530;11.754;2023-01-29T12:31:07;100908.03;;;20.27;40.87
40075;BME280;26529;51.530;11.754;2023-01-29T12:38:57;100903.06;;;20.21;41.10
40075;BME280;26529;51.530;11.754;2023-01-29T12:41:35;100889.19;;;20.16;41.35
40075;BME280;26529;51.530;11.754;2023-01-29T12:46:58;100894.88;;;20.10;41.19
40075;BME280;26529;51.530;11.754;2023-01-29T12:49:28;100887.06;;;20.06;41.40
40075;BME280;26529;51.530;11.754;2023-01-29T12:52:08;100884.59;;;20.03;41.68
40075;BME280;26529;51.530;11.754;2023-01-29T12:54:46;100885.53;;;20.02;41.50
40075;BME280;26529;51.530;11.754;2023-01-29T12:57:24;100884.94;;;19.97;41.47
40075;BME280;26529;51.530;11.754;2023-01-29T13:00:00;100888.66;;;19.93;41.47
40075;BME280;26529;51.530;11.754;2023-01-29T13:02:48;100889.81;;;19.89;41.76
40075;BME280;26529;51.530;11.754;2023-01-29T13:05:17;100895.28;;;19.86;41.68
40075;BME280;26529;51.530;11.754;2023-01-29T13:07:50;100899.06;;;19.82;41.84
40075;BME280;26529;51.530;11.754;2023-01-29T13:10:21;100894.88;;;19.77;41.81
40075;BME280;26529;51.530;11.754;2023-01-29T13:13:00;100903.97;;;19.73;41.78
40075;BME280;26529;51.530;11.754;2023-01-29T13:15:33;100892.81;;;19.66;41.91
40075;BME280;26529;51.530;11.754;2023-01-29T13:21:21;100891.44;;;19.59;41.88
40075;BME280;26529;51.530;11.754;2023-01-29T13:23:50;100891.53;;;19.58;42.09
40075;BME280;26529;51.530;11.754;2023-01-29T13:26:18;100885.44;;;19.56;42.06
40075;BME280;26529;51.530;11.754;2023-01-29T13:28:45;100874.97;;;19.52;42.06
40075;BME280;26529;51.530;11.754;2023-01-29T13:31:32;100870.66;;;19.50;42.17
40075;BME280;26529;51.530;11.754;2023-01-29T13:34:19;100869.81;;;19.49;42.21
40075;BME280;26529;51.530;11.754;2023-01-29T13:36:55;100856.59;;;19.48;42.08
40075;BME280;26529;51.530;11.754;2023-01-29T13:41:54;100855.03;;;19.44;42.07
40075;BME280;26529;51.530;11.754;2023-01-29T13:44:32;100848.88;;;19.43;42.17
40075;BME280;26529;51.530;11.754;2023-01-29T13:47:02;100847.19;;;19.42;42.27
40075;BME280;26529;51.530;11.754;2023-01-29T13:52:40;100830.63;;;19.37;42.27
40075;BME280;26529;51.530;11.754;2023-01-29T14:10:28;100833.75;;;19.28;42.48
40075;BME280;26529;51.530;11.754;2023-01-29T14:15:45;100835.66;;;19.25;42.62
40075;BME280;26529;51.530;11.754;2023-01-29T14:18:19;100832.25;;;19.23;42.38
40075;BME280;26529;51.530;11.754;2023-01-29T14:20:57;100843.03;;;19.20;42.48
40075;BME280;26529;51.530;11.754;2023-01-29T14:25:57;100844.91;;;19.18;42.50
40075;BME280;26529;51.530;11.754;2023-01-29T14:28:27;100840.53;;;19.17;42.62
40075;BME280;26529;51.530;11.754;2023-01-29T14:30:53;100838.84;;;19.16;42.61
40075;BME280;26529;51.530;11.754;2023-01-29T14:33:35;100856.66;;;19.14;42.54
40075;BME280;26529;51.530;11.754;2023-01-29T14:36:21;100862.06;;;19.13;42.50
40075;BME280;26529;51.530;11.754;2023-01-29T14:38:52;100857.78;;;19.10;42.51
40075;BME280;26529;51.530;11.754;2023-01-29T14:41:30;100866.69;;;19.09;42.45
40075;BME280;26529;51.530;11.754;2023-01-29T14:47:00;100873.09;;;19.05;42.65